sensor_id;sensor_type;location;lat;lon;timestamp;temperature;humidity
24049;DHT22;12250;50.956;4.746;2024-02-26T00:02:20;7.10;99.90
24049;DHT22;12250;50.956;4.746;2024-02-26T00:04:46;7.10;99.90
24049;DHT22;12250;50.956;4.746;2024-02-26T00:07:11;7.10;99.90
24049;DHT22;12250;50.956;4.746;2024-02-26T00:09:37;7.20;99.90
24049;DHT22;12250;50.956;4.746;2024-02-26T00:12:03;7.20;99.90
24049;DHT22;12250;50.956;4.746;2024-02-26T00:14:30;7.10;99.90
24049;DHT22;12250;50.956;4.746;2024-02-26T00:16:57;7.10;99.90
24049;DHT22;12250;50.956;4.746;2024-02-26T00:19:22;7.00;99.90
24049;DHT22;12250;50.956;4.746;2024-02-26T00:21:48;7.00;99.90
24049;DHT22;12250;50.956;4.746;2024-02-26T00:24:13;7.00;99.90
24049;DHT22;12250;50.956;4.746;2024-02-26T00:26:39;7.00;99.90
24049;DHT22;12250;50.956;4.746;2024-02-26T00:29:05;7.00;99.90
24049;DHT22;12250;50.956;4.746;2024-02-26T00:31:31;7.10;99.90
24049;DHT22;12250;50.956;4.746;2024-02-26T00:33:56;7.00;99.90
24049;DHT22;12250;50.956;4.746;2024-02-26T00:36:22;6.90;99.90
24049;DHT22;12250;50.956;4.746;2024-02-26T00:38:48;6.90;99.90
24049;DHT22;12250;50.956;4.746;2024-02-26T00:41:21;7.00;99.90
24049;DHT22;12250;50.956;4.746;2024-02-26T00:43:47;7.00;99.90
24049;DHT22;12250;50.956;4.746;2024-02-26T00:46:13;7.00;99.90
24049;DHT22;12250;50.956;4.746;2024-02-26T00:48:38;7.00;99.90
24049;DHT22;12250;50.956;4.746;2024-02-26T00:51:05;7.00;99.90
24049;DHT22;12250;50.956;4.746;2024-02-26T00:53:31;7.00;99.90
24049;DHT22;12250;50.956;4.746;2024-02-26T00:55:57;6.90;99.90
24049;DHT22;12250;50.956;4.746;2024-02-26T00:58:25;6.90;99.90
24049;DHT22;12250;50.956;4.746;2024-02-26T01:00:51;6.90;99.90
24049;DHT22;12250;50.956;4.746;2024-02-26T01:03:17;6.90;99.90
24049;DHT22;12250;50.956;4.746;2024-02-26T01:05:43;7.00;99.90
24049;DHT22;12250;50.956;4.746;2024-02-26T01:08:09;7.00;99.90
24049;DHT22;12250;50.956;4.746;2024-02-26T01:10:34;6.90;99.90
24049;DHT22;12250;50.956;4.746;2024-02-26T01:13:01;6.90;99.90
24049;DHT22;12250;50.956;4.746;2024-02-26T01:15:27;6.90;99.90
24049;DHT22;12250;50.956;4.746;2024-02-26T01:17:53;6.90;99.90
24049;DHT22;12250;50.956;4.746;2024-02-26T01:20:19;6.90;99.90
24049;DHT22;12250;50.956;4.746;2024-02-26T01:22:45;6.90;99.90
24049;DHT22;12250;50.956;4.746;2024-02-26T01:25:11;6.90;99.90
24049;DHT22;12250;50.956;4.746;2024-02-26T01:27:37;6.90;99.90
24049;DHT22;12250;50.956;4.746;2024-02-26T01:30:04;6.80;99.90
24049;DHT22;12250;50.956;4.746;2024-02-26T01:32:30;6.70;99.90
24049;DHT22;12250;50.956;4.746;2024-02-26T01:34:56;6.70;99.90
24049;DHT22;12250;50.956;4.746;2024-02-26T01:37:22;6.70;99.90
24049;DHT22;12250;50.956;4.746;2024-02-26T01:39:48;6.70;99.90
24049;DHT22;12250;50.956;4.746;2024-02-26T01:42:13;6.80;99.90
24049;DHT22;12250;50.956;4.746;2024-02-26T01:44:39;6.70;99.90
24049;DHT22;12250;50.956;4.746;2024-02-26T01:47:11;6.70;99.90
24049;DHT22;12250;50.956;4.746;2024-02-26T01:49:37;6.80;99.90
24049;DHT22;12250;50.956;4.746;2024-02-26T01:52:04;6.80;99.90
24049;DHT22;12250;50.956;4.746;2024-02-26T01:54:31;6.70;99.90
24049;DHT22;12250;50.956;4.746;2024-02-26T01:56:57;6.70;99.90
24049;DHT22;12250;50.956;4.746;2024-02-26T01:59:23;6.70;99.90
24049;DHT22;12250;50.956;4.746;2024-02-26T02:01:53;6.80;99.90
24049;DHT22;12250;50.956;4.746;2024-02-26T02:04:20;6.80;99.90
24049;DHT22;12250;50.956;4.746;2024-02-26T02:06:47;6.70;99.90
24049;DHT22;12250;50.956;4.746;2024-02-26T02:09:14;6.70;99.90
24049;DHT22;12250;50.956;4.746;2024-02-26T02:11:39;6.70;99.90
24049;DHT22;12250;50.956;4.746;2024-02-26T02:14:06;6.70;99.90
24049;DHT22;12250;50.956;4.746;2024-02-26T02:16:31;6.70;99.90
24049;DHT22;12250;50.956;4.746;2024-02-26T02:18:58;6.70;99.90
24049;DHT22;12250;50.956;4.746;2024-02-26T02:21:24;6.70;99.90
24049;DHT22;12250;50.956;4.746;2024-02-26T02:23:49;6.70;99.90
24049;DHT22;12250;50.956;4.746;2024-02-26T02:26:16;6.70;99.90
24049;DHT22;12250;50.956;4.746;2024-02-26T02:28:42;6.70;99.90
24049;DHT22;12250;50.956;4.746;2024-02-26T02:31:09;6.60;99.90
24049;DHT22;12250;50.956;4.746;2024-02-26T02:33:35;6.60;99.90
24049;DHT22;12250;50.956;4.746;2024-02-26T02:36:01;6.60;99.90
24049;DHT22;12250;50.956;4.746;2024-02-26T02:38:27;6.60;99.90
24049;DHT22;12250;50.956;4.746;2024-02-26T02:40:55;6.60;99.90
24049;DHT22;12250;50.956;4.746;2024-02-26T02:43:21;6.60;99.90
24049;DHT22;12250;50.956;4.746;2024-02-26T02:45:46;6.60;99.90
24049;DHT22;12250;50.956;4.746;2024-02-26T02:48:12;6.60;99.90
24049;DHT22;12250;50.956;4.746;2024-02-26T02:50:38;6.60;99.90
24049;DHT22;12250;50.956;4.746;2024-02-26T02:53:04;6.60;99.90
24049;DHT22;12250;50.956;4.746;2024-02-26T02:55:29;6.60;99.90
24049;DHT22;12250;50.956;4.746;2024-02-26T02:57:55;6.60;99.90
24049;DHT22;12250;50.956;4.746;2024-02-26T03:00:21;6.70;99.90
24049;DHT22;12250;50.956;4.746;2024-02-26T03:02:48;6.50;99.90
24049;DHT22;12250;50.956;4.746;2024-02-26T03:05:14;6.60;99.90
24049;DHT22;12250;50.956;4.746;2024-02-26T03:07:40;6.50;99.90
24049;DHT22;12250;50.956;4.746;2024-02-26T03:10:06;6.60;99.90
24049;DHT22;12250;50.956;4.746;2024-02-26T03:12:33;6.50;99.90
24049;DHT22;12250;50.956;4.746;2024-02-26T03:14:59;6.50;99.90
24049;DHT22;12250;50.956;4.746;2024-02-26T03:17:31;6.50;99.90
24049;DHT22;12250;50.956;4.746;2024-02-26T03:19:56;6.50;99.90
24049;DHT22;12250;50.956;4.746;2024-02-26T03:22:22;6.50;99.90
24049;DHT22;12250;50.956;4.746;2024-02-26T03:24:48;6.50;99.90
24049;DHT22;12250;50.956;4.746;2024-02-26T03:27:14;6.40;99.90
24049;DHT22;12250;50.956;4.746;2024-02-26T03:29:40;6.50;99.90
24049;DHT22;12250;50.956;4.746;2024-02-26T03:32:06;6.40;99.90
24049;DHT22;12250;50.956;4.746;2024-02-26T03:34:32;6.40;99.90
24049;DHT22;12250;50.956;4.746;2024-02-26T03:37:00;6.60;99.90
24049;DHT22;12250;50.956;4.746;2024-02-26T03:39:26;6.50;99.90
24049;DHT22;12250;50.956;4.746;2024-02-26T03:41:52;6.50;99.90
24049;DHT22;12250;50.956;4.746;2024-02-26T03:44:17;6.50;99.90
24049;DHT22;12250;50.956;4.746;2024-02-26T03:46:43;6.50;99.90
24049;DHT22;12250;50.956;4.746;2024-02-26T03:49:09;6.40;99.90
24049;DHT22;12250;50.956;4.746;2024-02-26T03:51:35;6.40;99.90
24049;DHT22;12250;50.956;4.746;2024-02-26T03:54:01;6.40;99.90
24049;DHT22;12250;50.956;4.746;2024-02-26T03:56:27;6.40;99.90
24049;DHT22;12250;50.956;4.746;2024-02-26T03:58:53;6.40;99.90
24049;DHT22;12250;50.956;4.746;2024-02-26T04:01:19;6.30;99.90
24049;DHT22;12250;50.956;4.746;2024-02-26T04:03:44;6.30;99.90
24049;DHT22;12250;50.956;4.746;2024-02-26T04:06:11;6.40;99.90
24049;DHT22;12250;50.956;4.746;2024-02-26T04:08:40;6.40;99.90
24049;DHT22;12250;50.956;4.746;2024-02-26T04:11:07;6.40;99.90
24049;DHT22;12250;50.956;4.746;2024-02-26T04:13:36;6.40;99.90
24049;DHT22;12250;50.956;4.746;2024-02-26T04:16:06;6.50;99.90
24049;DHT22;12250;50.956;4.746;2024-02-26T04:18:32;6.50;99.90
24049;DHT22;12250;50.956;4.746;2024-02-26T04:20:58;6.50;99.90
24049;DHT22;12250;50.956;4.746;2024-02-26T04:23:24;6.50;99.90
24049;DHT22;12250;50.956;4.746;2024-02-26T04:25:50;6.50;99.90
24049;DHT22;12250;50.956;4.746;2024-02-26T04:28:16;6.40;99.90
24049;DHT22;12250;50.956;4.746;2024-02-26T04:30:42;6.50;99.90
24049;DHT22;12250;50.956;4.746;2024-02-26T04:33:08;6.50;99.90
24049;DHT22;12250;50.956;4.746;2024-02-26T04:35:34;6.50;99.90
24049;DHT22;12250;50.956;4.746;2024-02-26T04:38:01;6.60;99.90
24049;DHT22;12250;50.956;4.746;2024-02-26T04:40:26;6.60;99.90
24049;DHT22;12250;50.956;4.746;2024-02-26T04:42:52;6.50;99.90
24049;DHT22;12250;50.956;4.746;2024-02-26T04:45:18;6.50;99.90
24049;DHT22;12250;50.956;4.746;2024-02-26T04:47:43;6.50;99.90
24049;DHT22;12250;50.956;4.746;2024-02-26T04:50:09;6.50;99.90
24049;DHT22;12250;50.956;4.746;2024-02-26T04:52:35;6.50;99.90
24049;DHT22;12250;50.956;4.746;2024-02-26T04:55:01;6.50;99.90
24049;DHT22;12250;50.956;4.746;2024-02-26T04:57:28;6.50;99.90
24049;DHT22;12250;50.956;4.746;2024-02-26T04:59:53;6.50;99.90
24049;DHT22;12250;50.956;4.746;2024-02-26T05:02:19;6.50;99.90
24049;DHT22;12250;50.956;4.746;2024-02-26T05:04:45;6.50;99.90
24049;DHT22;12250;50.956;4.746;2024-02-26T05:07:10;6.40;99.90
24049;DHT22;12250;50.956;4.746;2024-02-26T05:09:37;6.40;99.90
24049;DHT22;12250;50.956;4.746;2024-02-26T05:12:03;6.40;99.90
24049;DHT22;12250;50.956;4.746;2024-02-26T05:14:29;6.50;99.90
24049;DHT22;12250;50.956;4.746;2024-02-26T05:16:55;6.40;99.90
24049;DHT22;12250;50.956;4.746;2024-02-26T05:19:21;6.40;99.90
24049;DHT22;12250;50.956;4.746;2024-02-26T05:21:47;6.50;99.90
24049;DHT22;12250;50.956;4.746;2024-02-26T05:24:14;6.40;99.90
24049;DHT22;12250;50.956;4.746;2024-02-26T05:26:41;6.40;99.90
24049;DHT22;12250;50.956;4.746;2024-02-26T05:29:06;6.40;99.90
24049;DHT22;12250;50.956;4.746;2024-02-26T05:31:32;6.40;99.90
24049;DHT22;12250;50.956;4.746;2024-02-26T05:33:58;6.50;99.90
24049;DHT22;12250;50.956;4.746;2024-02-26T05:36:24;6.60;99.90
24049;DHT22;12250;50.956;4.746;2024-02-26T05:38:51;6.50;99.90
24049;DHT22;12250;50.956;4.746;2024-02-26T05:41:17;6.40;99.90
24049;DHT22;12250;50.956;4.746;2024-02-26T05:43:51;6.40;99.90
24049;DHT22;12250;50.956;4.746;2024-02-26T05:46:21;6.40;99.90
24049;DHT22;12250;50.956;4.746;2024-02-26T05:48:48;6.50;99.90
24049;DHT22;12250;50.956;4.746;2024-02-26T05:51:14;6.60;99.90
24049;DHT22;12250;50.956;4.746;2024-02-26T05:53:41;6.50;99.90
24049;DHT22;12250;50.956;4.746;2024-02-26T05:56:07;6.50;99.90
24049;DHT22;12250;50.956;4.746;2024-02-26T05:58:32;6.60;99.90
24049;DHT22;12250;50.956;4.746;2024-02-26T06:00:58;6.60;99.90
24049;DHT22;12250;50.956;4.746;2024-02-26T06:03:25;6.60;99.90
24049;DHT22;12250;50.956;4.746;2024-02-26T06:05:51;6.40;99.90
24049;DHT22;12250;50.956;4.746;2024-02-26T06:08:17;6.40;99.90
24049;DHT22;12250;50.956;4.746;2024-02-26T06:10:42;6.30;99.90
24049;DHT22;12250;50.956;4.746;2024-02-26T06:13:08;6.30;99.90
24049;DHT22;12250;50.956;4.746;2024-02-26T06:15:34;6.40;99.90
24049;DHT22;12250;50.956;4.746;2024-02-26T06:18:00;6.40;99.90
24049;DHT22;12250;50.956;4.746;2024-02-26T06:20:25;6.30;99.90
24049;DHT22;12250;50.956;4.746;2024-02-26T06:22:51;6.40;99.90
24049;DHT22;12250;50.956;4.746;2024-02-26T06:25:17;6.40;99.90
24049;DHT22;12250;50.956;4.746;2024-02-26T06:27:42;6.40;99.90
24049;DHT22;12250;50.956;4.746;2024-02-26T06:30:08;6.30;99.90
24049;DHT22;12250;50.956;4.746;2024-02-26T06:32:38;6.30;99.90
24049;DHT22;12250;50.956;4.746;2024-02-26T06:35:04;6.30;99.90
24049;DHT22;12250;50.956;4.746;2024-02-26T06:37:34;6.20;99.90
24049;DHT22;12250;50.956;4.746;2024-02-26T06:40:00;6.30;99.90
24049;DHT22;12250;50.956;4.746;2024-02-26T06:42:27;6.30;99.90
24049;DHT22;12250;50.956;4.746;2024-02-26T06:44:54;6.20;99.90
24049;DHT22;12250;50.956;4.746;2024-02-26T06:47:20;6.20;99.90
24049;DHT22;12250;50.956;4.746;2024-02-26T06:49:45;6.30;99.90
24049;DHT22;12250;50.956;4.746;2024-02-26T06:52:11;6.20;99.90
24049;DHT22;12250;50.956;4.746;2024-02-26T06:54:37;6.30;99.90
24049;DHT22;12250;50.956;4.746;2024-02-26T06:57:02;6.20;99.90
24049;DHT22;12250;50.956;4.746;2024-02-26T06:59:28;6.20;99.90
24049;DHT22;12250;50.956;4.746;2024-02-26T07:01:54;6.20;99.90
24049;DHT22;12250;50.956;4.746;2024-02-26T07:04:20;6.30;99.90
24049;DHT22;12250;50.956;4.746;2024-02-26T07:06:46;6.20;99.90
24049;DHT22;12250;50.956;4.746;2024-02-26T07:09:13;6.20;99.90
24049;DHT22;12250;50.956;4.746;2024-02-26T07:11:38;6.30;99.90
24049;DHT22;12250;50.956;4.746;2024-02-26T07:14:11;6.30;99.90
24049;DHT22;12250;50.956;4.746;2024-02-26T07:16:37;6.30;99.90
24049;DHT22;12250;50.956;4.746;2024-02-26T07:19:03;6.30;99.90
24049;DHT22;12250;50.956;4.746;2024-02-26T07:21:29;6.30;99.90
24049;DHT22;12250;50.956;4.746;2024-02-26T07:23:54;6.30;99.90
24049;DHT22;12250;50.956;4.746;2024-02-26T07:26:20;6.30;99.90
24049;DHT22;12250;50.956;4.746;2024-02-26T07:28:46;6.40;99.90
24049;DHT22;12250;50.956;4.746;2024-02-26T07:31:12;6.30;99.90
24049;DHT22;12250;50.956;4.746;2024-02-26T07:33:38;6.40;99.90
24049;DHT22;12250;50.956;4.746;2024-02-26T07:36:04;6.40;99.90
24049;DHT22;12250;50.956;4.746;2024-02-26T07:38:30;6.30;99.90
24049;DHT22;12250;50.956;4.746;2024-02-26T07:40:56;6.40;99.90
24049;DHT22;12250;50.956;4.746;2024-02-26T07:43:22;6.50;99.90
24049;DHT22;12250;50.956;4.746;2024-02-26T07:45:48;6.40;99.90
24049;DHT22;12250;50.956;4.746;2024-02-26T07:48:14;6.30;99.90
24049;DHT22;12250;50.956;4.746;2024-02-26T07:50:39;6.30;99.90
24049;DHT22;12250;50.956;4.746;2024-02-26T07:53:06;6.30;99.90
24049;DHT22;12250;50.956;4.746;2024-02-26T07:55:32;6.20;99.90
24049;DHT22;12250;50.956;4.746;2024-02-26T07:57:57;6.30;99.90
24049;DHT22;12250;50.956;4.746;2024-02-26T08:00:24;6.50;99.90
24049;DHT22;12250;50.956;4.746;2024-02-26T08:02:49;6.60;99.90
24049;DHT22;12250;50.956;4.746;2024-02-26T08:05:15;6.50;99.90
24049;DHT22;12250;50.956;4.746;2024-02-26T08:07:41;6.60;99.90
24049;DHT22;12250;50.956;4.746;2024-02-26T08:10:07;6.60;99.90
24049;DHT22;12250;50.956;4.746;2024-02-26T08:12:33;6.50;99.90
24049;DHT22;12250;50.956;4.746;2024-02-26T08:14:59;6.50;99.90
24049;DHT22;12250;50.956;4.746;2024-02-26T08:17:25;6.50;99.90
24049;DHT22;12250;50.956;4.746;2024-02-26T08:19:52;6.60;99.90
24049;DHT22;12250;50.956;4.746;2024-02-26T08:22:18;6.50;99.90
24049;DHT22;12250;50.956;4.746;2024-02-26T08:24:44;6.50;99.90
24049;DHT22;12250;50.956;4.746;2024-02-26T08:27:10;6.50;99.90
24049;DHT22;12250;50.956;4.746;2024-02-26T08:29:35;6.70;99.90
24049;DHT22;12250;50.956;4.746;2024-02-26T08:32:02;6.70;99.90
24049;DHT22;12250;50.956;4.746;2024-02-26T08:34:28;6.50;99.90
24049;DHT22;12250;50.956;4.746;2024-02-26T08:36:54;6.50;99.90
24049;DHT22;12250;50.956;4.746;2024-02-26T08:39:19;6.40;99.90
24049;DHT22;12250;50.956;4.746;2024-02-26T08:41:46;6.50;99.90
24049;DHT22;12250;50.956;4.746;2024-02-26T08:44:11;6.40;99.90
24049;DHT22;12250;50.956;4.746;2024-02-26T08:46:37;6.40;99.90
24049;DHT22;12250;50.956;4.746;2024-02-26T08:49:03;6.60;99.90
24049;DHT22;12250;50.956;4.746;2024-02-26T08:51:29;6.70;99.90
24049;DHT22;12250;50.956;4.746;2024-02-26T08:53:55;6.60;99.90
24049;DHT22;12250;50.956;4.746;2024-02-26T08:56:20;6.50;99.90
24049;DHT22;12250;50.956;4.746;2024-02-26T08:58:47;6.60;99.90
24049;DHT22;12250;50.956;4.746;2024-02-26T09:01:15;6.60;99.90
24049;DHT22;12250;50.956;4.746;2024-02-26T09:03:41;6.60;99.90
24049;DHT22;12250;50.956;4.746;2024-02-26T09:06:07;6.60;99.90
24049;DHT22;12250;50.956;4.746;2024-02-26T09:08:33;6.60;99.90
24049;DHT22;12250;50.956;4.746;2024-02-26T09:10:59;6.50;99.90
24049;DHT22;12250;50.956;4.746;2024-02-26T09:13:24;6.40;99.90
24049;DHT22;12250;50.956;4.746;2024-02-26T09:15:50;6.40;99.90
24049;DHT22;12250;50.956;4.746;2024-02-26T09:18:16;6.50;99.90
24049;DHT22;12250;50.956;4.746;2024-02-26T09:20:41;6.60;99.90
24049;DHT22;12250;50.956;4.746;2024-02-26T09:23:07;6.60;99.90
24049;DHT22;12250;50.956;4.746;2024-02-26T09:25:33;6.60;99.90
24049;DHT22;12250;50.956;4.746;2024-02-26T09:27:59;6.50;99.90
24049;DHT22;12250;50.956;4.746;2024-02-26T09:30:25;6.50;99.90
24049;DHT22;12250;50.956;4.746;2024-02-26T09:32:50;6.50;99.90
24049;DHT22;12250;50.956;4.746;2024-02-26T09:35:17;6.40;99.90
24049;DHT22;12250;50.956;4.746;2024-02-26T09:37:43;6.50;99.90
24049;DHT22;12250;50.956;4.746;2024-02-26T09:40:10;6.60;99.90
24049;DHT22;12250;50.956;4.746;2024-02-26T09:42:44;6.50;99.90
24049;DHT22;12250;50.956;4.746;2024-02-26T09:45:21;6.60;99.90
24049;DHT22;12250;50.956;4.746;2024-02-26T09:47:48;6.60;99.90
24049;DHT22;12250;50.956;4.746;2024-02-26T09:50:17;6.60;99.90
24049;DHT22;12250;50.956;4.746;2024-02-26T09:52:43;6.40;99.90
24049;DHT22;12250;50.956;4.746;2024-02-26T09:55:09;6.40;99.90
24049;DHT22;12250;50.956;4.746;2024-02-26T09:57:37;6.50;99.90
24049;DHT22;12250;50.956;4.746;2024-02-26T10:00:04;6.30;99.90
24049;DHT22;12250;50.956;4.746;2024-02-26T10:02:33;6.40;99.90
24049;DHT22;12250;50.956;4.746;2024-02-26T10:05:02;6.40;99.90
24049;DHT22;12250;50.956;4.746;2024-02-26T10:07:31;6.50;99.90
24049;DHT22;12250;50.956;4.746;2024-02-26T10:09:57;6.50;99.90
24049;DHT22;12250;50.956;4.746;2024-02-26T10:12:24;6.40;99.90
24049;DHT22;12250;50.956;4.746;2024-02-26T10:14:51;6.40;99.90
24049;DHT22;12250;50.956;4.746;2024-02-26T10:17:17;6.40;99.90
24049;DHT22;12250;50.956;4.746;2024-02-26T10:19:44;6.40;99.90
24049;DHT22;12250;50.956;4.746;2024-02-26T10:22:10;6.40;99.90
24049;DHT22;12250;50.956;4.746;2024-02-26T10:24:37;6.40;99.90
24049;DHT22;12250;50.956;4.746;2024-02-26T10:27:03;6.40;99.90
24049;DHT22;12250;50.956;4.746;2024-02-26T10:29:29;6.40;99.90
24049;DHT22;12250;50.956;4.746;2024-02-26T10:31:56;6.40;99.90
24049;DHT22;12250;50.956;4.746;2024-02-26T10:34:22;6.50;99.90
24049;DHT22;12250;50.956;4.746;2024-02-26T10:36:49;6.50;99.90
24049;DHT22;12250;50.956;4.746;2024-02-26T10:39:14;6.50;99.90
24049;DHT22;12250;50.956;4.746;2024-02-26T10:41:43;6.50;99.90
24049;DHT22;12250;50.956;4.746;2024-02-26T10:44:10;6.50;99.90
24049;DHT22;12250;50.956;4.746;2024-02-26T10:46:37;6.40;99.90
24049;DHT22;12250;50.956;4.746;2024-02-26T10:49:02;6.40;99.90
24049;DHT22;12250;50.956;4.746;2024-02-26T10:51:30;6.50;99.90
24049;DHT22;12250;50.956;4.746;2024-02-26T10:53:57;6.50;99.90
24049;DHT22;12250;50.956;4.746;2024-02-26T10:56:34;6.60;99.90
24049;DHT22;12250;50.956;4.746;2024-02-26T10:59:00;6.50;99.90
24049;DHT22;12250;50.956;4.746;2024-02-26T11:01:27;6.40;99.90
24049;DHT22;12250;50.956;4.746;2024-02-26T11:03:58;6.50;99.90
24049;DHT22;12250;50.956;4.746;2024-02-26T11:06:26;6.50;99.90
24049;DHT22;12250;50.956;4.746;2024-02-26T11:08:52;6.60;99.90
24049;DHT22;12250;50.956;4.746;2024-02-26T11:11:20;6.70;99.90
24049;DHT22;12250;50.956;4.746;2024-02-26T11:13:47;6.50;99.90
24049;DHT22;12250;50.956;4.746;2024-02-26T11:16:21;6.40;99.90
24049;DHT22;12250;50.956;4.746;2024-02-26T11:18:52;6.40;99.90
24049;DHT22;12250;50.956;4.746;2024-02-26T11:21:21;6.40;99.90
24049;DHT22;12250;50.956;4.746;2024-02-26T11:24:13;6.40;99.90
24049;DHT22;12250;50.956;4.746;2024-02-26T11:26:52;6.60;99.90
24049;DHT22;12250;50.956;4.746;2024-02-26T11:29:27;6.50;99.90
24049;DHT22;12250;50.956;4.746;2024-02-26T11:31:54;6.60;99.90
24049;DHT22;12250;50.956;4.746;2024-02-26T11:34:19;6.70;99.90
24049;DHT22;12250;50.956;4.746;2024-02-26T11:36:46;6.70;99.90
24049;DHT22;12250;50.956;4.746;2024-02-26T11:39:12;6.60;99.90
24049;DHT22;12250;50.956;4.746;2024-02-26T11:41:40;6.50;99.90
24049;DHT22;12250;50.956;4.746;2024-02-26T11:44:06;6.50;99.90
24049;DHT22;12250;50.956;4.746;2024-02-26T11:46:42;6.60;99.90
24049;DHT22;12250;50.956;4.746;2024-02-26T11:51:56;6.60;99.90
24049;DHT22;12250;50.956;4.746;2024-02-26T11:54:59;6.50;99.90
24049;DHT22;12250;50.956;4.746;2024-02-26T11:57:29;6.40;99.90
24049;DHT22;12250;50.956;4.746;2024-02-26T12:02:52;6.30;99.90
24049;DHT22;12250;50.956;4.746;2024-02-26T12:05:27;6.40;99.90
24049;DHT22;12250;50.956;4.746;2024-02-26T12:08:00;6.30;99.90
24049;DHT22;12250;50.956;4.746;2024-02-26T12:10:28;6.30;99.90
24049;DHT22;12250;50.956;4.746;2024-02-26T12:13:00;6.30;99.90
24049;DHT22;12250;50.956;4.746;2024-02-26T12:15:36;6.40;99.90
24049;DHT22;12250;50.956;4.746;2024-02-26T12:18:04;6.30;99.90
24049;DHT22;12250;50.956;4.746;2024-02-26T12:20:30;6.30;99.90
24049;DHT22;12250;50.956;4.746;2024-02-26T12:22:56;6.30;99.90
24049;DHT22;12250;50.956;4.746;2024-02-26T12:25:25;6.40;99.90
24049;DHT22;12250;50.956;4.746;2024-02-26T12:27:52;6.60;99.90
24049;DHT22;12250;50.956;4.746;2024-02-26T12:30:17;6.60;99.90
24049;DHT22;12250;50.956;4.746;2024-02-26T12:32:45;6.40;99.90
24049;DHT22;12250;50.956;4.746;2024-02-26T12:35:11;6.30;99.90
24049;DHT22;12250;50.956;4.746;2024-02-26T12:37:38;6.30;99.90
24049;DHT22;12250;50.956;4.746;2024-02-26T12:40:08;6.30;99.90
24049;DHT22;12250;50.956;4.746;2024-02-26T12:42:34;6.20;99.90
24049;DHT22;12250;50.956;4.746;2024-02-26T12:45:09;6.40;99.90
24049;DHT22;12250;50.956;4.746;2024-02-26T12:47:39;6.40;99.90
24049;DHT22;12250;50.956;4.746;2024-02-26T12:50:06;6.40;99.90
24049;DHT22;12250;50.956;4.746;2024-02-26T12:52:33;6.40;99.90
24049;DHT22;12250;50.956;4.746;2024-02-26T12:55:01;6.50;99.90
24049;DHT22;12250;50.956;4.746;2024-02-26T12:57:29;6.50;99.90
24049;DHT22;12250;50.956;4.746;2024-02-26T12:59:56;6.40;99.90
24049;DHT22;12250;50.956;4.746;2024-02-26T13:02:22;6.50;99.90
24049;DHT22;12250;50.956;4.746;2024-02-26T13:04:48;6.60;99.90
24049;DHT22;12250;50.956;4.746;2024-02-26T13:07:14;6.70;99.90
24049;DHT22;12250;50.956;4.746;2024-02-26T13:09:39;6.70;99.90
24049;DHT22;12250;50.956;4.746;2024-02-26T13:12:06;6.70;99.90
24049;DHT22;12250;50.956;4.746;2024-02-26T13:14:32;6.60;99.90
24049;DHT22;12250;50.956;4.746;2024-02-26T13:17:00;6.60;99.90
24049;DHT22;12250;50.956;4.746;2024-02-26T13:19:26;6.50;99.90
24049;DHT22;12250;50.956;4.746;2024-02-26T13:21:54;6.50;99.90
24049;DHT22;12250;50.956;4.746;2024-02-26T13:24:20;6.50;99.90
24049;DHT22;12250;50.956;4.746;2024-02-26T13:26:46;6.50;99.90
24049;DHT22;12250;50.956;4.746;2024-02-26T13:29:18;6.50;99.90
24049;DHT22;12250;50.956;4.746;2024-02-26T13:31:44;6.40;99.90
24049;DHT22;12250;50.956;4.746;2024-02-26T13:34:09;6.40;99.90
24049;DHT22;12250;50.956;4.746;2024-02-26T13:36:35;6.40;99.90
24049;DHT22;12250;50.956;4.746;2024-02-26T13:39:01;6.40;99.90
24049;DHT22;12250;50.956;4.746;2024-02-26T13:41:30;6.50;99.90
24049;DHT22;12250;50.956;4.746;2024-02-26T13:43:56;6.50;99.90
24049;DHT22;12250;50.956;4.746;2024-02-26T13:46:23;6.40;99.90
24049;DHT22;12250;50.956;4.746;2024-02-26T13:48:49;6.30;99.90
24049;DHT22;12250;50.956;4.746;2024-02-26T13:51:14;6.20;99.90
24049;DHT22;12250;50.956;4.746;2024-02-26T13:53:40;6.20;99.90
24049;DHT22;12250;50.956;4.746;2024-02-26T13:56:06;6.30;99.90
24049;DHT22;12250;50.956;4.746;2024-02-26T13:58:32;6.20;99.90
24049;DHT22;12250;50.956;4.746;2024-02-26T14:00:58;6.30;99.90
24049;DHT22;12250;50.956;4.746;2024-02-26T14:03:25;6.40;99.90
24049;DHT22;12250;50.956;4.746;2024-02-26T14:05:50;6.60;99.90
24049;DHT22;12250;50.956;4.746;2024-02-26T14:08:16;6.40;99.90
24049;DHT22;12250;50.956;4.746;2024-02-26T14:10:42;6.60;99.90
24049;DHT22;12250;50.956;4.746;2024-02-26T14:13:07;6.60;99.90
24049;DHT22;12250;50.956;4.746;2024-02-26T14:15:34;6.50;99.90
24049;DHT22;12250;50.956;4.746;2024-02-26T14:18:01;6.30;99.90
24049;DHT22;12250;50.956;4.746;2024-02-26T14:20:28;6.40;99.90
24049;DHT22;12250;50.956;4.746;2024-02-26T14:22:54;6.30;99.90
24049;DHT22;12250;50.956;4.746;2024-02-26T14:25:20;6.40;99.90
24049;DHT22;12250;50.956;4.746;2024-02-26T14:27:47;6.50;99.90
24049;DHT22;12250;50.956;4.746;2024-02-26T14:30:13;6.60;99.90
24049;DHT22;12250;50.956;4.746;2024-02-26T14:32:39;6.50;99.90
24049;DHT22;12250;50.956;4.746;2024-02-26T14:35:06;6.60;99.90
24049;DHT22;12250;50.956;4.746;2024-02-26T14:37:32;6.50;99.90
24049;DHT22;12250;50.956;4.746;2024-02-26T14:39:58;6.60;99.90
24049;DHT22;12250;50.956;4.746;2024-02-26T14:42:24;6.70;99.90
24049;DHT22;12250;50.956;4.746;2024-02-26T14:44:50;6.50;99.90
24049;DHT22;12250;50.956;4.746;2024-02-26T14:47:16;6.50;99.90
24049;DHT22;12250;50.956;4.746;2024-02-26T14:49:42;6.50;99.90
24049;DHT22;12250;50.956;4.746;2024-02-26T14:52:08;6.40;99.90
24049;DHT22;12250;50.956;4.746;2024-02-26T14:54:34;6.40;99.90
24049;DHT22;12250;50.956;4.746;2024-02-26T14:57:05;6.50;99.90
24049;DHT22;12250;50.956;4.746;2024-02-26T14:59:31;6.50;99.90
24049;DHT22;12250;50.956;4.746;2024-02-26T15:01:57;6.40;99.90
24049;DHT22;12250;50.956;4.746;2024-02-26T15:04:25;6.50;99.90
24049;DHT22;12250;50.956;4.746;2024-02-26T15:06:51;6.50;99.90
24049;DHT22;12250;50.956;4.746;2024-02-26T15:09:17;6.50;99.90
24049;DHT22;12250;50.956;4.746;2024-02-26T15:11:43;6.60;99.90
24049;DHT22;12250;50.956;4.746;2024-02-26T15:14:10;6.70;99.90
24049;DHT22;12250;50.956;4.746;2024-02-26T15:16:36;6.60;99.90
24049;DHT22;12250;50.956;4.746;2024-02-26T15:19:02;6.60;99.90
24049;DHT22;12250;50.956;4.746;2024-02-26T15:21:32;6.60;99.90
24049;DHT22;12250;50.956;4.746;2024-02-26T15:23:58;6.60;99.90
24049;DHT22;12250;50.956;4.746;2024-02-26T15:26:24;6.70;99.90
24049;DHT22;12250;50.956;4.746;2024-02-26T15:28:51;6.70;99.90
24049;DHT22;12250;50.956;4.746;2024-02-26T15:31:17;6.70;99.90
24049;DHT22;12250;50.956;4.746;2024-02-26T15:33:43;6.70;99.90
24049;DHT22;12250;50.956;4.746;2024-02-26T15:36:09;6.60;99.90
24049;DHT22;12250;50.956;4.746;2024-02-26T15:38:37;6.60;99.90
24049;DHT22;12250;50.956;4.746;2024-02-26T15:41:14;6.60;99.90
24049;DHT22;12250;50.956;4.746;2024-02-26T15:43:40;6.50;99.90
24049;DHT22;12250;50.956;4.746;2024-02-26T15:46:06;6.60;99.90
24049;DHT22;12250;50.956;4.746;2024-02-26T15:48:32;6.60;99.90